createdAt,value
2023-09-08T00:01:01.955Z,14.51
2023-09-08T00:03:28.792Z,14.43
2023-09-08T00:05:56.838Z,14.44
2023-09-08T00:08:25.282Z,14.44
2023-09-08T00:10:53.180Z,14.44
2023-09-08T00:13:20.242Z,14.37
2023-09-08T00:15:50.054Z,14.06
2023-09-08T00:18:17.246Z,14.08
2023-09-08T00:20:44.155Z,14.08
2023-09-08T00:23:14.592Z,14.09
2023-09-08T00:25:41.729Z,14.14
2023-09-08T00:28:09.157Z,14.19
2023-09-08T00:30:36.411Z,14.15
2023-09-08T00:33:03.608Z,14.14
2023-09-08T00:35:31.564Z,14.18
2023-09-08T00:37:59.399Z,14.03
2023-09-08T00:40:29.115Z,13.85
2023-09-08T00:42:56.382Z,13.83
2023-09-08T00:45:30.829Z,13.84
2023-09-08T00:48:00.670Z,13.95
2023-09-08T00:50:27.687Z,13.76
2023-09-08T00:52:55.914Z,13.65
2023-09-08T00:55:26.060Z,13.58
2023-09-08T00:57:53.901Z,13.67
2023-09-08T01:00:23.748Z,13.64
2023-09-08T01:02:51.004Z,13.67
2023-09-08T01:05:21.563Z,13.66
2023-09-08T01:07:50.066Z,13.69
2023-09-08T01:10:17.688Z,13.49
2023-09-08T01:12:44.864Z,13.49
2023-09-08T01:15:15.361Z,13.17
2023-09-08T01:17:42.349Z,13.23
2023-09-08T01:20:18.594Z,13.22
2023-09-08T01:23:12.369Z,12.85
2023-09-08T01:26:07.320Z,12.85
2023-09-08T01:28:35.369Z,13.24
2023-09-08T01:31:13.186Z,13.27
2023-09-08T01:33:43.628Z,13.23
2023-09-08T01:36:11.044Z,13.20
2023-09-08T01:38:38.341Z,13.12
2023-09-08T01:41:05.717Z,13.15
2023-09-08T01:43:32.584Z,13.19
2023-09-08T01:46:01.692Z,13.34
2023-09-08T01:48:28.628Z,13.32
2023-09-08T01:50:57.492Z,13.24
2023-09-08T01:53:24.407Z,13.38
2023-09-08T01:55:51.429Z,12.97
2023-09-08T01:58:18.430Z,12.48
2023-09-08T02:00:50.831Z,12.63
2023-09-08T02:03:17.859Z,12.80
2023-09-08T02:05:46.209Z,12.94
2023-09-08T02:08:16.303Z,12.99
2023-09-08T02:10:43.506Z,13.01
2023-09-08T02:13:11.819Z,12.87
2023-09-08T02:15:39.846Z,12.07
2023-09-08T02:18:08.640Z,12.06
2023-09-08T02:20:35.746Z,12.02
2023-09-08T02:23:08.046Z,12.18
2023-09-08T02:25:35.323Z,12.26
2023-09-08T02:28:02.301Z,12.21
2023-09-08T02:30:30.242Z,12.22
2023-09-08T02:32:57.424Z,12.27
2023-09-08T02:35:28.070Z,12.38
2023-09-08T02:37:55.090Z,12.45
2023-09-08T02:40:22.296Z,12.37
2023-09-08T02:42:49.528Z,12.37
2023-09-08T02:45:16.458Z,12.47
2023-09-08T02:47:43.421Z,12.24
2023-09-08T02:50:11.822Z,11.94
2023-09-08T02:52:38.711Z,12.04
2023-09-08T02:55:08.154Z,12.16
2023-09-08T02:57:36.217Z,12.04
2023-09-08T03:00:03.510Z,12.16
2023-09-08T03:02:31.794Z,12.26
2023-09-08T03:05:00.355Z,11.96
2023-09-08T03:07:28.499Z,11.93
2023-09-08T03:09:56.770Z,11.92
2023-09-08T03:12:23.509Z,11.66
2023-09-08T03:14:53.120Z,11.57
2023-09-08T03:17:20.201Z,11.67
2023-09-08T03:19:47.805Z,11.70
2023-09-08T03:22:14.990Z,11.60
2023-09-08T03:24:43.887Z,11.48
2023-09-08T03:27:13.990Z,11.52
2023-09-08T03:29:41.944Z,11.63
2023-09-08T03:32:09.120Z,11.41
2023-09-08T03:34:40.712Z,11.63
2023-09-08T03:37:07.926Z,11.70
2023-09-08T03:39:34.978Z,11.76
2023-09-08T03:42:02.692Z,11.73
2023-09-08T03:44:34.890Z,11.73
2023-09-08T03:47:04.117Z,11.82
2023-09-08T03:49:31.283Z,11.83
2023-09-08T03:52:00.393Z,11.81
2023-09-08T03:54:27.160Z,11.82
2023-09-08T03:56:54.217Z,11.85
2023-09-08T03:59:21.152Z,11.88
2023-09-08T04:01:48.224Z,11.86
2023-09-08T04:04:15.638Z,11.92
2023-09-08T04:06:42.800Z,11.91
2023-09-08T04:09:09.916Z,11.94
2023-09-08T04:11:37.997Z,11.86
2023-09-08T04:14:04.845Z,11.86
2023-09-08T04:16:33.870Z,11.81
2023-09-08T04:19:00.690Z,11.82
2023-09-08T04:21:28.078Z,11.88
2023-09-08T04:23:55.270Z,11.89
2023-09-08T04:26:22.122Z,11.81
2023-09-08T04:28:51.159Z,11.79
2023-09-08T04:31:19.460Z,11.78
2023-09-08T04:33:46.574Z,11.86
2023-09-08T04:36:14.486Z,11.90
2023-09-08T04:38:43.488Z,11.93
2023-09-08T04:41:10.347Z,11.94
2023-09-08T04:43:37.588Z,11.94
2023-09-08T04:46:04.914Z,11.94
2023-09-08T04:48:31.911Z,11.98
2023-09-08T04:50:58.965Z,11.98
2023-09-08T04:53:25.998Z,12.06
2023-09-08T04:55:53.433Z,12.11
2023-09-08T04:58:21.800Z,12.17
2023-09-08T05:00:50.915Z,12.19
2023-09-08T05:03:17.823Z,12.19
2023-09-08T05:05:46.372Z,12.14
2023-09-08T05:08:13.740Z,12.20
2023-09-08T05:10:41.110Z,12.33
2023-09-08T05:13:14.058Z,12.31
2023-09-08T05:15:49.765Z,12.37
2023-09-08T05:18:16.899Z,12.42
2023-09-08T05:20:44.192Z,12.34
2023-09-08T05:23:11.080Z,12.41
2023-09-08T05:25:42.819Z,12.51
2023-09-08T05:28:09.649Z,12.58
2023-09-08T05:30:37.159Z,12.66
2023-09-08T05:33:04.102Z,12.76
2023-09-08T05:35:30.914Z,12.67
2023-09-08T05:37:57.869Z,12.70
2023-09-08T05:40:25.658Z,12.71
2023-09-08T05:42:53.185Z,12.74
2023-09-08T05:45:20.439Z,12.94
2023-09-08T05:47:50.373Z,12.91
2023-09-08T05:50:19.087Z,12.84
2023-09-08T05:52:46.364Z,12.88
2023-09-08T05:55:13.162Z,12.97
2023-09-08T05:57:41.973Z,13.14
2023-09-08T06:00:10.410Z,13.42
2023-09-08T06:02:37.356Z,13.61
2023-09-08T06:05:04.846Z,13.88
2023-09-08T06:07:32.131Z,14.11
2023-09-08T06:09:58.893Z,14.24
2023-09-08T06:12:25.890Z,14.46
2023-09-08T06:14:52.844Z,14.63
2023-09-08T06:17:19.652Z,14.82
2023-09-08T06:19:46.839Z,14.92
2023-09-08T06:22:14.721Z,15.23
2023-09-08T06:24:41.654Z,15.48
2023-09-08T06:27:08.714Z,15.68
2023-09-08T06:29:37.162Z,15.79
2023-09-08T06:32:04.144Z,15.92
2023-09-08T06:34:32.324Z,16.10
2023-09-08T06:36:59.517Z,16.22
2023-09-08T06:39:27.948Z,16.35
2023-09-08T06:41:56.138Z,16.51
2023-09-08T06:44:23.443Z,16.66
2023-09-08T06:46:51.407Z,16.73
2023-09-08T06:49:19.345Z,16.80
2023-09-08T06:51:48.690Z,16.96
2023-09-08T06:54:16.150Z,16.98
2023-09-08T06:56:43.481Z,16.92
2023-09-08T06:59:10.766Z,17.02
2023-09-08T07:01:39.536Z,17.17
2023-09-08T07:04:07.344Z,17.27
2023-09-08T07:06:38.282Z,17.33
2023-09-08T07:09:05.915Z,17.44
2023-09-08T07:11:33.077Z,17.51
2023-09-08T07:14:02.087Z,17.65
2023-09-08T07:16:29.077Z,17.81
2023-09-08T07:18:55.901Z,17.82
2023-09-08T07:21:23.927Z,17.96
2023-09-08T07:23:52.918Z,18.05
2023-09-08T07:26:19.797Z,18.05
2023-09-08T07:28:50.114Z,18.23
2023-09-08T07:31:17.389Z,18.35
2023-09-08T07:33:45.037Z,18.41
2023-09-08T07:36:12.962Z,18.65
2023-09-08T07:38:40.315Z,18.67
2023-09-08T07:41:07.131Z,18.91
2023-09-08T07:43:41.721Z,19.14
2023-09-08T07:46:09.359Z,19.36
2023-09-08T07:48:37.050Z,19.40
2023-09-08T07:51:04.238Z,19.49
2023-09-08T07:53:32.151Z,19.56
2023-09-08T07:55:59.094Z,19.63
2023-09-08T07:58:26.174Z,19.78
2023-09-08T08:00:55.928Z,20.04
2023-09-08T08:03:22.747Z,20.28
2023-09-08T08:05:51.409Z,20.44
2023-09-08T08:08:18.368Z,20.55
2023-09-08T08:10:45.309Z,20.62
2023-09-08T08:13:13.336Z,20.77
2023-09-08T08:15:43.905Z,20.87
2023-09-08T08:18:14.414Z,21.09
2023-09-08T08:20:41.319Z,21.25
2023-09-08T08:23:10.348Z,21.42
2023-09-08T08:25:37.453Z,21.59
2023-09-08T08:28:04.953Z,21.78
2023-09-08T08:30:33.658Z,21.88
2023-09-08T08:33:00.706Z,21.97
2023-09-08T08:35:27.611Z,21.99
2023-09-08T08:38:02.032Z,22.12
2023-09-08T08:40:29.538Z,22.13
2023-09-08T08:43:02.612Z,22.36
2023-09-08T08:45:31.326Z,22.43
2023-09-08T08:48:02.503Z,22.34
2023-09-08T08:50:31.944Z,22.39
2023-09-08T08:53:03.543Z,22.45
2023-09-08T08:55:31.832Z,22.66
2023-09-08T08:58:05.590Z,22.87
2023-09-08T09:00:35.328Z,23.04
2023-09-08T09:03:14.177Z,23.16
2023-09-08T09:05:48.423Z,23.41
2023-09-08T09:08:18.004Z,23.50
2023-09-08T09:10:45.210Z,23.67
2023-09-08T09:13:13.247Z,23.90
2023-09-08T09:15:43.922Z,24.17
2023-09-08T09:18:11.152Z,24.41
2023-09-08T09:20:39.362Z,24.63
2023-09-08T09:23:06.616Z,24.74
2023-09-08T09:25:34.077Z,24.90
2023-09-08T09:28:04.024Z,25.12
2023-09-08T09:30:55.452Z,25.42
2023-09-08T09:33:24.805Z,25.56
2023-09-08T09:35:55.775Z,25.79
2023-09-08T09:38:27.745Z,25.60
2023-09-08T09:40:55.397Z,25.47
2023-09-08T09:43:26.207Z,25.29
2023-09-08T09:45:54.747Z,25.44
2023-09-08T09:48:25.124Z,25.73
2023-09-08T09:50:55.157Z,26.24
2023-09-08T09:53:22.728Z,26.83
2023-09-08T09:55:52.444Z,27.32
2023-09-08T09:58:21.960Z,27.49
2023-09-08T10:00:50.725Z,27.96
2023-09-08T10:03:19.206Z,28.30
2023-09-08T10:05:48.382Z,28.62
2023-09-08T10:08:15.679Z,29.10
2023-09-08T10:10:47.133Z,29.44
2023-09-08T10:13:19.315Z,29.59
2023-09-08T10:15:47.574Z,29.74
2023-09-08T10:18:17.794Z,30.18
2023-09-08T10:20:46.158Z,30.41
2023-09-08T10:23:52.124Z,30.01
2023-09-08T10:26:19.585Z,29.49
2023-09-08T10:28:47.161Z,29.83
2023-09-08T10:31:18.277Z,30.53
2023-09-08T10:33:46.747Z,31.20
2023-09-08T10:36:14.602Z,31.54
2023-09-08T10:38:42.771Z,31.25
2023-09-08T10:41:30.586Z,31.57
2023-09-08T10:44:02.151Z,31.06
2023-09-08T10:46:31.001Z,31.46
2023-09-08T10:49:07.883Z,30.74
2023-09-08T10:51:35.994Z,30.33
2023-09-08T10:54:03.434Z,30.11
2023-09-08T10:56:53.301Z,29.42
2023-09-08T10:59:20.881Z,29.31
2023-09-08T11:01:49.068Z,29.20
2023-09-08T11:04:20.591Z,29.79
2023-09-08T11:06:47.903Z,29.47
2023-09-08T11:09:15.402Z,29.01
2023-09-08T11:11:43.211Z,29.27
2023-09-08T11:14:12.356Z,29.67
2023-09-08T11:16:39.414Z,29.75
2023-09-08T11:19:06.336Z,30.07
2023-09-08T11:21:36.363Z,30.97
2023-09-08T11:24:06.026Z,31.56
2023-09-08T11:26:36.595Z,32.65
2023-09-08T11:29:04.178Z,33.36
2023-09-08T11:31:31.286Z,33.62
2023-09-08T11:34:00.667Z,34.07
2023-09-08T11:36:31.788Z,34.47
2023-09-08T11:38:58.667Z,35.02
2023-09-08T11:41:26.824Z,35.48
2023-09-08T11:43:53.888Z,34.68
2023-09-08T11:46:21.391Z,34.96
2023-09-08T11:48:48.713Z,34.47
2023-09-08T11:51:17.028Z,34.77
2023-09-08T11:53:45.198Z,33.89
2023-09-08T11:56:12.500Z,34.62
2023-09-08T11:58:40.110Z,34.97
2023-09-08T12:01:11.040Z,35.65
2023-09-08T12:03:53.193Z,35.65
2023-09-08T12:06:20.507Z,35.88
2023-09-08T12:08:47.743Z,36.02
2023-09-08T12:11:16.705Z,35.38
2023-09-08T12:13:43.676Z,35.43
2023-09-08T12:16:20.704Z,34.57
2023-09-08T12:18:50.988Z,34.75
2023-09-08T12:21:18.245Z,34.36
2023-09-08T12:23:52.847Z,33.83
2023-09-08T12:26:25.396Z,34.70
2023-09-08T12:28:52.529Z,35.20
2023-09-08T12:31:20.919Z,35.50
2023-09-08T12:33:48.022Z,36.00
2023-09-08T12:36:19.916Z,35.26
2023-09-08T12:38:54.291Z,35.08
2023-09-08T12:41:21.472Z,35.64
2023-09-08T12:43:48.855Z,35.71
2023-09-08T12:46:19.985Z,35.61
2023-09-08T12:48:49.433Z,35.05
2023-09-08T12:51:16.486Z,34.01
2023-09-08T12:53:45.415Z,34.42
2023-09-08T12:56:12.351Z,35.17
2023-09-08T12:58:40.246Z,35.50
2023-09-08T13:01:08.467Z,35.21
2023-09-08T13:03:35.348Z,34.82
2023-09-08T13:06:02.159Z,34.74
2023-09-08T13:08:29.145Z,34.94
2023-09-08T13:10:57.255Z,35.96
2023-09-08T13:13:24.453Z,35.49
2023-09-08T13:15:53.591Z,35.36
2023-09-08T13:18:21.827Z,35.98
2023-09-08T13:20:48.942Z,35.80
2023-09-08T13:23:17.039Z,36.08
2023-09-08T13:25:45.878Z,36.42
2023-09-08T13:28:13.001Z,37.08
2023-09-08T13:30:40.801Z,37.31
2023-09-08T13:33:08.820Z,35.99
2023-09-08T13:35:35.712Z,35.94
2023-09-08T13:38:04.358Z,36.04
2023-09-08T13:40:32.209Z,36.08
2023-09-08T13:42:59.221Z,35.37
2023-09-08T13:45:27.829Z,34.77
2023-09-08T13:47:55.250Z,35.32
2023-09-08T13:50:26.941Z,36.22
2023-09-08T13:52:55.852Z,37.19
2023-09-08T13:55:37.078Z,36.89
2023-09-08T13:58:08.796Z,36.34
2023-09-08T14:00:39.089Z,36.64
2023-09-08T14:03:09.682Z,36.95
2023-09-08T14:05:45.471Z,36.30
2023-09-08T14:08:18.567Z,37.12
2023-09-08T14:13:26.507Z,36.19
2023-09-08T14:15:57.333Z,36.24
2023-09-08T14:18:25.919Z,36.65
2023-09-08T14:20:53.122Z,37.14
2023-09-08T14:23:19.862Z,37.34
2023-09-08T14:25:46.877Z,37.69
2023-09-08T14:28:13.982Z,38.21
2023-09-08T14:30:41.800Z,38.43
2023-09-08T14:33:08.788Z,38.00
2023-09-08T14:35:36.304Z,38.12
2023-09-08T14:38:04.178Z,38.63
2023-09-08T14:40:31.114Z,38.85
2023-09-08T14:42:58.156Z,38.66
2023-09-08T14:45:24.973Z,39.03
2023-09-08T14:47:53.133Z,38.69
2023-09-08T14:50:20.912Z,38.66
2023-09-08T14:52:47.805Z,39.00
2023-09-08T14:55:16.080Z,39.23
2023-09-08T14:57:43.436Z,39.54
2023-09-08T15:00:11.276Z,38.97
2023-09-08T15:02:38.406Z,39.04
2023-09-08T15:05:06.294Z,39.21
2023-09-08T15:07:33.179Z,39.09
2023-09-08T15:10:00.237Z,39.09
2023-09-08T15:12:28.090Z,38.96
2023-09-08T15:14:57.103Z,38.68
2023-09-08T15:17:24.129Z,38.32
2023-09-08T15:19:51.270Z,37.97
2023-09-08T15:22:18.482Z,37.85
2023-09-08T15:24:45.643Z,37.94
2023-09-08T15:27:13.120Z,37.15
2023-09-08T15:29:40.398Z,36.46
2023-09-08T15:32:09.282Z,35.59
2023-09-08T15:34:36.312Z,35.53
2023-09-08T15:37:05.286Z,35.41
2023-09-08T15:39:32.277Z,35.53
2023-09-08T15:41:59.172Z,35.59
2023-09-08T15:44:27.299Z,35.40
2023-09-08T15:46:54.530Z,35.34
2023-09-08T15:49:23.278Z,35.37
2023-09-08T15:52:00.718Z,35.53
2023-09-08T15:54:36.974Z,35.66
2023-09-08T15:57:04.539Z,35.86
2023-09-08T15:59:31.573Z,36.05
2023-09-08T16:01:58.875Z,36.07
2023-09-08T16:04:29.236Z,35.89
2023-09-08T16:06:56.364Z,35.83
2023-09-08T16:09:24.248Z,35.72
2023-09-08T16:11:51.304Z,35.59
2023-09-08T16:14:20.217Z,35.36
2023-09-08T16:16:48.254Z,35.19
2023-09-08T16:19:15.696Z,34.97
2023-09-08T16:21:43.872Z,34.82
2023-09-08T16:24:10.941Z,34.69
2023-09-08T16:26:37.973Z,34.48
2023-09-08T16:29:06.008Z,34.36
2023-09-08T16:31:32.899Z,34.10
2023-09-08T16:34:00.910Z,33.83
2023-09-08T16:36:27.836Z,33.55
2023-09-08T16:38:54.659Z,33.13
2023-09-08T16:41:21.615Z,32.61
2023-09-08T16:43:48.827Z,32.01
2023-09-08T16:46:15.747Z,31.62
2023-09-08T16:48:42.480Z,31.11
2023-09-08T16:51:09.525Z,30.69
2023-09-08T16:53:36.557Z,30.23
2023-09-08T16:56:09.944Z,29.71
2023-09-08T16:58:37.286Z,29.17
2023-09-08T17:01:06.402Z,28.80
2023-09-08T17:03:33.371Z,28.42
2023-09-08T17:06:01.390Z,28.15
2023-09-08T17:08:29.085Z,27.96
2023-09-08T17:10:58.321Z,27.56
2023-09-08T17:13:25.704Z,27.24
2023-09-08T17:15:52.831Z,27.03
2023-09-08T17:18:23.713Z,26.86
2023-09-08T17:20:51.305Z,26.60
2023-09-08T17:23:19.322Z,26.39
2023-09-08T17:25:47.211Z,26.14
2023-09-08T17:28:14.179Z,25.90
2023-09-08T17:30:41.900Z,25.65
2023-09-08T17:33:09.228Z,25.09
2023-09-08T17:35:37.416Z,24.75
2023-09-08T17:38:05.022Z,24.69
2023-09-08T17:40:32.946Z,24.30
2023-09-08T17:43:00.832Z,24.34
2023-09-08T17:45:27.941Z,24.29
2023-09-08T17:47:55.348Z,24.28
2023-09-08T17:50:25.935Z,24.12
2023-09-08T17:52:52.715Z,23.88
2023-09-08T17:55:19.833Z,23.59
2023-09-08T17:57:49.435Z,23.58
2023-09-08T18:00:25.846Z,23.45
2023-09-08T18:02:52.691Z,23.26
2023-09-08T18:05:19.967Z,22.88
2023-09-08T18:07:46.752Z,22.90
2023-09-08T18:10:15.149Z,22.70
2023-09-08T18:12:53.423Z,22.64
2023-09-08T18:15:20.439Z,22.60
2023-09-08T18:17:48.573Z,22.53
2023-09-08T18:20:15.685Z,22.47
2023-09-08T18:22:42.810Z,22.40
2023-09-08T18:25:09.950Z,22.17
2023-09-08T18:27:37.089Z,22.17
2023-09-08T18:30:05.600Z,21.96
2023-09-08T18:32:35.029Z,21.72
2023-09-08T18:35:02.059Z,21.61
2023-09-08T18:37:28.996Z,21.54
2023-09-08T18:39:55.893Z,21.43
2023-09-08T18:42:25.875Z,21.35
2023-09-08T18:44:52.901Z,21.13
2023-09-08T18:47:19.885Z,21.08
2023-09-08T18:49:51.059Z,21.02
2023-09-08T18:52:18.606Z,20.85
2023-09-08T18:54:45.757Z,20.76
2023-09-08T18:57:12.787Z,20.65
2023-09-08T18:59:39.789Z,20.63
2023-09-08T19:02:06.695Z,20.61
2023-09-08T19:04:34.853Z,20.57
2023-09-08T19:07:02.021Z,20.46
2023-09-08T19:09:30.035Z,20.39
2023-09-08T19:11:58.030Z,20.29
2023-09-08T19:14:29.631Z,20.18
2023-09-08T19:16:58.933Z,20.11
2023-09-08T19:19:26.092Z,19.93
2023-09-08T19:21:53.008Z,19.76
2023-09-08T19:24:20.431Z,19.73
2023-09-08T19:26:47.330Z,19.69
2023-09-08T19:29:17.241Z,19.61
2023-09-08T19:31:45.549Z,19.56
2023-09-08T19:34:12.813Z,19.52
2023-09-08T19:36:40.106Z,19.36
2023-09-08T19:39:08.305Z,19.31
2023-09-08T19:41:37.075Z,19.22
2023-09-08T19:44:04.884Z,19.05
2023-09-08T19:46:36.706Z,18.87
2023-09-08T19:49:03.935Z,18.78
2023-09-08T19:51:32.149Z,18.73
2023-09-08T19:54:01.477Z,18.80
2023-09-08T19:56:29.920Z,18.77
2023-09-08T19:58:57.069Z,18.70
2023-09-08T20:01:26.236Z,18.65
2023-09-08T20:03:53.439Z,18.65
2023-09-08T20:06:20.573Z,18.58
2023-09-08T20:08:47.445Z,18.51
2023-09-08T20:11:14.434Z,18.49
2023-09-08T20:13:41.497Z,18.32
2023-09-08T20:16:10.891Z,18.17
2023-09-08T20:18:38.539Z,17.97
2023-09-08T20:21:06.498Z,17.91
2023-09-08T20:23:35.826Z,18.02
2023-09-08T20:26:04.236Z,18.07
2023-09-08T20:28:33.059Z,18.14
2023-09-08T20:33:30.961Z,18.11
2023-09-08T20:35:58.214Z,18.15
2023-09-08T20:38:25.412Z,18.16
2023-09-08T20:40:53.715Z,18.10
2023-09-08T20:43:24.052Z,17.94
2023-09-08T20:45:57.161Z,17.91
2023-09-08T20:48:24.451Z,17.90
2023-09-08T20:51:21.482Z,17.80
2023-09-08T20:53:48.445Z,17.49
2023-09-08T20:56:15.434Z,17.30
2023-09-08T20:58:43.776Z,17.13
2023-09-08T21:01:11.369Z,17.09
2023-09-08T21:03:39.040Z,17.04
2023-09-08T21:06:07.026Z,17.03
2023-09-08T21:08:34.494Z,16.75
2023-09-08T21:11:03.305Z,16.73
2023-09-08T21:13:30.812Z,16.68
2023-09-08T21:15:57.695Z,16.48
2023-09-08T21:18:24.517Z,16.39
2023-09-08T21:20:51.495Z,16.40
2023-09-08T21:23:20.447Z,16.20
2023-09-08T21:25:47.454Z,16.12
2023-09-08T21:28:14.403Z,15.84
2023-09-08T21:30:41.254Z,15.66
2023-09-08T21:33:11.539Z,15.71
2023-09-08T21:35:39.162Z,15.88
2023-09-08T21:38:06.195Z,15.97
2023-09-08T21:40:33.311Z,15.76
2023-09-08T21:43:00.208Z,15.77
2023-09-08T21:45:28.051Z,15.78
2023-09-08T21:47:55.126Z,15.80
2023-09-08T21:50:23.593Z,15.79
2023-09-08T21:52:53.783Z,15.80
2023-09-08T21:55:25.038Z,15.87
2023-09-08T21:57:53.039Z,15.93
2023-09-08T22:00:22.454Z,15.94
2023-09-08T22:02:49.538Z,15.97
2023-09-08T22:05:17.912Z,15.98
2023-09-08T22:07:45.938Z,16.02
2023-09-08T22:10:14.059Z,15.96
2023-09-08T22:12:42.562Z,15.85
2023-09-08T22:15:10.402Z,15.76
2023-09-08T22:17:39.586Z,15.90
2023-09-08T22:20:14.507Z,15.90
2023-09-08T22:22:41.925Z,15.93
2023-09-08T22:25:12.312Z,15.98
2023-09-08T22:27:41.168Z,16.03
2023-09-08T22:30:09.510Z,16.02
2023-09-08T22:32:38.014Z,16.12
2023-09-08T22:35:06.114Z,16.11
2023-09-08T22:37:35.585Z,16.05
2023-09-08T22:40:06.790Z,16.10
2023-09-08T22:42:33.906Z,16.10
2023-09-08T22:45:02.553Z,16.08
2023-09-08T22:47:29.334Z,16.05
2023-09-08T22:50:07.926Z,16.04
2023-09-08T22:52:35.571Z,16.10
2023-09-08T22:55:17.528Z,16.00
2023-09-08T22:57:51.492Z,15.97
2023-09-08T23:00:18.845Z,15.99
2023-09-08T23:02:47.739Z,16.05
2023-09-08T23:05:15.169Z,15.93
2023-09-08T23:07:45.607Z,15.80
2023-09-08T23:10:15.262Z,15.69
2023-09-08T23:12:46.316Z,15.35
2023-09-08T23:15:14.988Z,14.93
2023-09-08T23:17:41.922Z,14.64
2023-09-08T23:20:16.053Z,14.53
2023-09-08T23:22:44.521Z,14.47
2023-09-08T23:25:11.931Z,14.77
2023-09-08T23:27:38.996Z,14.61
2023-09-08T23:30:07.193Z,14.64
2023-09-08T23:32:36.366Z,14.75
2023-09-08T23:35:05.344Z,14.72
2023-09-08T23:37:32.173Z,14.84
2023-09-08T23:40:00.272Z,14.82
2023-09-08T23:42:27.211Z,14.64
2023-09-08T23:44:54.125Z,14.58
2023-09-08T23:47:21.118Z,14.48
2023-09-08T23:49:47.952Z,14.63
2023-09-08T23:52:15.962Z,14.70
2023-09-08T23:54:43.865Z,14.98
2023-09-08T23:57:11.992Z,15.12
2023-09-08T23:59:38.790Z,15.12
